Time;durP1;ratioP1;P1;durP2;ratioP2;P2;SDS_P1;SDS_P2;PMS_P1;PMS_P2;Temp;Humidity;BMP_temperature;BMP_pressure;BME280_temperature;BME280_humidity;BME280_pressure;Samples;Min_cycle;Max_cycle;Signal;HPM_P1;HPM_P2
2022/08/22 00:00:21;;;;;;;23.50;9.90;;;;;;;;;;5076902;28;21017;-69
2022/08/22 00:02:54;;;;;;;19.30;7.60;;;;;;;;;;5092764;28;20464;-69
2022/08/22 00:05:25;;;;;;;23.70;10.57;;;;;;;;;;5036545;28;20484;-69
2022/08/22 00:07:57;;;;;;;16.13;6.60;;;;;;;;;;5030374;28;20518;-70
2022/08/22 00:10:28;;;;;;;20.47;10.20;;;;;;;;;;5029364;28;20479;-69
2022/08/22 00:13:01;;;;;;;25.60;7.93;;;;;;;;;;5039611;28;20577;-69
2022/08/22 00:15:31;;;;;;;26.27;10.90;;;;;;;;;;5032054;28;20483;-69
2022/08/22 00:18:09;;;;;;;25.37;7.87;;;;;;;;;;5029612;28;20478;-69
2022/08/22 00:20:41;;;;;;;29.13;12.10;;;;;;;;;;5040209;28;20486;-69
2022/08/22 00:23:12;;;;;;;15.03;7.97;;;;;;;;;;5016369;28;20579;-69
2022/08/22 00:25:45;;;;;;;19.10;10.13;;;;;;;;;;5035557;28;20471;-68
2022/08/22 00:28:16;;;;;;;16.33;7.33;;;;;;;;;;5052428;28;20478;-69
2022/08/22 00:30:48;;;;;;;27.47;9.03;;;;;;;;;;5057689;28;20569;-69
2022/08/22 00:33:18;;;;;;;25.03;8.50;;;;;;;;;;5040348;28;20487;-69
2022/08/22 00:35:48;;;;;;;21.10;7.63;;;;;;;;;;5025118;28;20470;-70
2022/08/22 00:38:18;;;;;;;15.63;8.13;;;;;;;;;;5037926;28;20490;-69
2022/08/22 00:40:53;;;;;;;16.30;7.30;;;;;;;;;;5037223;28;20475;-69
2022/08/22 00:43:34;;;;;;;35.37;8.73;;;;;;;;;;5053712;28;21330;-70
2022/08/22 00:46:16;;;;;;;18.83;7.30;;;;;;;;;;5059199;28;20505;-70
2022/08/22 00:49:13;;;;;;;16.30;8.30;;;19.40;81.60;;;;;;5073983;28;20997;-69
2022/08/22 00:51:56;;;;;;;62.27;9.90;;;;;;;;;;5039188;28;20502;-69
2022/08/22 00:54:29;;;;;;;26.53;8.57;;;;;;;;;;5037125;28;21230;-69
2022/08/22 00:57:06;;;;;;;28.03;8.90;;;;;;;;;;5042077;28;20495;-69
2022/08/22 00:59:50;;;;;;;27.97;13.27;;;;;;;;;;5039383;28;20513;-69
2022/08/22 01:02:27;;;;;;;34.13;8.70;;;;;;;;;;5057104;28;20471;-70
2022/08/22 01:05:02;;;;;;;19.87;7.90;;;;;;;;;;5064685;28;20490;-69
2022/08/22 01:07:36;;;;;;;34.70;13.17;;;;;;;;;;5083861;27;20796;-69
2022/08/22 01:10:13;;;;;;;16.70;8.60;;;;;;;;;;5090907;27;20813;-69
2022/08/22 01:12:48;;;;;;;62.90;11.50;;;;;;;;;;5077345;28;20555;-69
2022/08/22 01:15:21;;;;;;;17.93;7.83;;;19.00;82.40;;;;;;5086135;28;20481;-69
2022/08/22 01:18:07;;;;;;;20.97;6.77;;;;;;;;;;5068290;28;20496;-70
2022/08/22 01:20:53;;;;;;;31.63;12.13;;;;;;;;;;5073951;28;20480;-70
2022/08/22 01:23:39;;;;;;;30.83;9.50;;;;;;;;;;5076034;28;20481;-70
2022/08/22 01:26:27;;;;;;;18.43;9.57;;;;;;;;;;5084486;28;20503;-69
2022/08/22 01:29:13;;;;;;;30.80;9.73;;;;;;;;;;5075872;28;20493;-70
2022/08/22 01:32:06;;;;;;;30.90;10.20;;;;;;;;;;5079103;28;21328;-70
2022/08/22 01:34:57;;;;;;;34.73;12.67;;;;;;;;;;5045013;28;20491;-69
2022/08/22 01:37:40;;;;;;;21.80;9.23;;;;;;;;;;5040131;28;20835;-69
2022/08/22 01:40:26;;;;;;;24.33;8.47;;;;;;;;;;5035484;28;20505;-70
2022/08/22 01:43:06;;;;;;;24.23;8.00;;;18.60;83.30;;;;;;5031407;28;21272;-70
2022/08/22 01:45:42;;;;;;;28.87;12.20;;;;;;;;;;5051198;28;21102;-70
2022/08/22 01:48:12;;;;;;;22.70;8.50;;;;;;;;;;5059410;28;20484;-70
2022/08/22 01:50:43;;;;;;;24.90;10.50;;;;;;;;;;5036215;28;20476;-69
2022/08/22 01:53:15;;;;;;;15.43;8.67;;;;;;;;;;5032977;28;20498;-70
2022/08/22 01:55:46;;;;;;;14.53;8.50;;;;;;;;;;5033044;28;20828;-69
2022/08/22 01:58:16;;;;;;;17.80;8.30;;;;;;;;;;5034310;28;20487;-69
2022/08/22 02:01:03;;;;;;;23.13;9.33;;;;;;;;;;5046182;28;21004;-70
2022/08/22 02:03:32;;;;;;;31.87;12.20;;;;;;;;;;5073101;28;20818;-70
2022/08/22 02:06:04;;;;;;;23.67;8.23;;;;;;;;;;5061803;28;20490;-70
2022/08/22 02:08:34;;;;;;;26.53;11.00;;;;;;;;;;5041755;28;20466;-69
2022/08/22 02:11:04;;;;;;;26.73;9.10;;;;;;;;;;5071358;28;20830;-69
2022/08/22 02:13:45;;;;;;;43.93;12.77;;;;;;;;;;5071227;28;20510;-69
2022/08/22 02:16:16;;;;;;;24.37;8.77;;;;;;;;;;5063171;28;20473;-69
2022/08/22 02:18:50;;;;;;;31.87;7.20;;;;;;;;;;5040338;28;20914;-69
2022/08/22 02:21:21;;;;;;;18.33;9.30;;;;;;;;;;5032420;28;21205;-68
2022/08/22 02:23:50;;;;;;;21.87;8.33;;;;;;;;;;5036991;28;20994;-69
2022/08/22 02:26:21;;;;;;;35.47;9.23;;;;;;;;;;5033076;28;20499;-69
2022/08/22 02:28:53;;;;;;;25.83;8.13;;;;;;;;;;5033732;28;20487;-69
2022/08/22 02:31:24;;;;;;;25.43;8.53;;;;;;;;;;5042411;28;20487;-69
2022/08/22 02:33:54;;;;;;;27.33;9.03;;;;;;;;;;5033781;28;20873;-69
2022/08/22 02:36:26;;;;;;;20.70;9.43;;;;;;;;;;5034625;28;20996;-69
2022/08/22 02:38:58;;;;;;;21.43;7.57;;;;;;;;;;5034088;28;20491;-69
2022/08/22 02:41:27;;;;;;;23.93;10.07;;;;;;;;;;5034545;28;21013;-69
2022/08/22 02:43:56;;;;;;;22.03;7.90;;;;;;;;;;5040310;28;20842;-69
2022/08/22 02:46:25;;;;;;;25.30;9.77;;;;;;;;;;5036600;28;20495;-70
2022/08/22 02:48:56;;;;;;;19.73;7.43;;;;;;;;;;5041103;28;20821;-68
2022/08/22 02:51:29;;;;;;;47.43;11.23;;;;;;;;;;5033685;28;20975;-69
2022/08/22 02:53:58;;;;;;;17.50;7.77;;;;;;;;;;5033563;28;20894;-69
2022/08/22 02:56:30;;;;;;;28.13;11.77;;;;;;;;;;5031139;28;20479;-70
2022/08/22 02:58:58;;;;;;;24.33;8.73;;;;;;;;;;5046436;28;21100;-69
2022/08/22 03:01:35;;;;;;;22.73;8.73;;;;;;;;;;5032116;28;20492;-70
2022/08/22 03:04:21;;;;;;;32.73;9.17;;;;;;;;;;5035903;28;20846;-69
2022/08/22 03:07:06;;;;;;;47.27;12.40;;;16.80;85.10;;;;;;5031509;28;20490;-69
2022/08/22 03:09:35;;;;;;;18.43;9.73;;;;;;;;;;5045611;28;20481;-69
2022/08/22 03:12:08;;;;;;;21.57;7.80;;;;;;;;;;5035647;28;20877;-68
2022/08/22 03:14:39;;;;;;;45.10;11.83;;;;;;;;;;5049208;28;20911;-68
2022/08/22 03:17:10;;;;;;;19.47;7.43;;;;;;;;;;5054247;28;21043;-69
2022/08/22 03:19:50;;;;;;;50.27;13.00;;;;;;;;;;5029101;28;20466;-69
2022/08/22 03:22:22;;;;;;;18.77;8.40;;;;;;;;;;5036091;28;20503;-69
2022/08/22 03:24:53;;;;;;;25.47;8.20;;;;;;;;;;5034090;28;20860;-68
2022/08/22 03:27:22;;;;;;;14.43;7.43;;;;;;;;;;5036392;28;20582;-69
2022/08/22 03:29:51;;;;;;;28.27;8.83;;;;;;;;;;5039507;28;20467;-69
2022/08/22 03:32:20;;;;;;;20.17;7.80;;;;;;;;;;5023698;28;20484;-69
2022/08/22 03:34:57;;;;;;;19.70;7.40;;;;;;;;;;5048617;28;20673;-69
2022/08/22 03:37:27;;;;;;;20.77;8.37;;;;;;;;;;5033738;28;20486;-69
2022/08/22 03:39:58;;;;;;;28.20;9.23;;;;;;;;;;5060927;28;21149;-69
2022/08/22 03:42:36;;;;;;;52.40;12.77;;;;;;;;;;5040360;28;20490;-69
2022/08/22 03:45:18;;;;;;;47.33;10.00;;;;;;;;;;5035381;28;20486;-69
2022/08/22 03:48:00;;;;;;;42.17;9.70;;;;;;;;;;5058778;28;21000;-69
2022/08/22 03:50:47;;;;;;;53.57;10.97;;;;;;;;;;5058000;28;20478;-68
2022/08/22 03:53:26;;;;;;;25.77;7.73;;;;;;;;;;5054153;28;20478;-69
2022/08/22 03:56:08;;;;;;;33.97;11.20;;;;;;;;;;5045770;28;20459;-68
2022/08/22 03:58:51;;;;;;;49.33;12.93;;;;;;;;;;5047160;28;20481;-69
2022/08/22 04:01:25;;;;;;;36.83;10.23;;;;;;;;;;5055941;28;20461;-68
2022/08/22 04:04:13;;;;;;;38.57;8.73;;;;;;;;;;5061604;28;20485;-68
2022/08/22 04:06:58;;;;;;;34.23;11.20;;;;;;;;;;5042273;28;21419;-69
2022/08/22 04:09:43;;;;;;;62.60;14.37;;;;;;;;;;5040459;28;20476;-69
2022/08/22 04:12:18;;;;;;;67.17;12.17;;;;;;;;;;5064608;27;20483;-69
2022/08/22 04:14:54;;;;;;;31.07;8.33;;;;;;;;;;5045103;28;20838;-68
2022/08/22 04:17:35;;;;;;;26.30;10.10;;;;;;;;;;5028626;28;20471;-68
2022/08/22 04:20:08;;;;;;;51.50;10.13;;;;;;;;;;5072823;28;20485;-68
2022/08/22 04:22:50;;;;;;;49.83;13.80;;;;;;;;;;5077443;28;20482;-69
2022/08/22 04:25:22;;;;;;;35.20;10.50;;;;;;;;;;5088075;27;20469;-68
2022/08/22 04:27:54;;;;;;;33.87;8.40;;;;;;;;;;5072334;28;20477;-69
2022/08/22 04:30:24;;;;;;;39.40;9.40;;;;;;;;;;5028202;28;20471;-68
2022/08/22 04:32:54;;;;;;;52.17;10.43;;;;;;;;;;5042020;28;20471;-69
2022/08/22 04:35:28;;;;;;;45.13;9.07;;;;;;;;;;5026461;28;20486;-68
2022/08/22 04:37:57;;;;;;;33.57;7.47;;;;;;;;;;5030971;28;20468;-68
2022/08/22 04:40:27;;;;;;;54.20;14.07;;;;;;;;;;5037451;28;20476;-68
2022/08/22 04:42:57;;;;;;;36.37;7.70;;;;;;;;;;5040438;28;21002;-68
2022/08/22 04:45:30;;;;;;;40.57;11.27;;;;;;;;;;5073861;28;21000;-68
2022/08/22 04:48:01;;;;;;;43.40;8.90;;;;;;;;;;5073142;28;20493;-68
2022/08/22 04:50:33;;;;;;;64.90;13.93;;;;;;;;;;5074432;28;20482;-68
2022/08/22 04:53:05;;;;;;;36.07;9.17;;;;;;;;;;5043877;28;20480;-68
2022/08/22 04:55:37;;;;;;;49.20;11.80;;;;;;;;;;5050129;28;21367;-68
2022/08/22 04:58:10;;;;;;;66.07;10.73;;;;;;;;;;5060880;28;20481;-69
2022/08/22 05:00:41;;;;;;;51.30;12.70;;;;;;;;;;5058087;28;20487;-68
2022/08/22 05:03:11;;;;;;;29.97;7.47;;;;;;;;;;5055498;28;20857;-68
2022/08/22 05:05:43;;;;;;;61.07;12.23;;;;;;;;;;5035985;28;20515;-68
2022/08/22 05:08:12;;;;;;;31.40;7.93;;;;;;;;;;5038947;28;20484;-68
2022/08/22 05:10:42;;;;;;;59.50;13.40;;;;;;;;;;5039008;28;20493;-68
2022/08/22 05:13:11;;;;;;;50.33;10.20;;;;;;;;;;5036618;28;20480;-67
2022/08/22 05:15:40;;;;;;;69.67;12.10;;;;;;;;;;5030131;28;20701;-68
2022/08/22 05:18:09;;;;;;;39.03;7.27;;;;;;;;;;5049884;28;20488;-68
2022/08/22 05:20:38;;;;;;;64.70;14.90;;;;;;;;;;5045584;28;20489;-68
2022/08/22 05:23:10;;;;;;;52.73;10.13;;;;;;;;;;5057059;28;21083;-68
2022/08/22 05:25:38;;;;;;;85.90;14.17;;;;;;;;;;5052465;28;20475;-69
2022/08/22 05:28:11;;;;;;;42.20;9.17;;;;;;;;;;5050554;28;20524;-68
2022/08/22 05:30:38;;;;;;;70.60;12.80;;;;;;;;;;5054906;28;20528;-68
2022/08/22 05:33:12;;;;;;;44.60;8.37;;;;;;;;;;5056716;28;20482;-69
2022/08/22 05:35:40;;;;;;;78.10;14.83;;;;;;;;;;5054014;28;20821;-68
2022/08/22 05:38:10;;;;;;;48.63;8.20;;;;;;;;;;5051956;28;20481;-68
2022/08/22 05:40:37;;;;;;;99.80;16.93;;;;;;;;;;5072155;28;20495;-69
2022/08/22 05:43:06;;;;;;;59.60;10.77;;;;;;;;;;5035954;28;20487;-69
2022/08/22 05:45:34;;;;;;;99.37;16.97;;;;;;;;;;5035972;28;20523;-69
2022/08/22 05:48:05;;;;;;;59.70;10.43;;;14.90;92.10;;;;;;5025795;28;20491;-69
2022/08/22 05:50:36;;;;;;;117.37;18.73;;;;;;;;;;5051877;28;20494;-68
2022/08/22 05:53:06;;;;;;;53.33;10.67;;;;;;;;;;5057406;28;20526;-69
2022/08/22 05:55:37;;;;;;;92.33;15.83;;;;;;;;;;5047471;28;20859;-69
2022/08/22 05:58:22;;;;;;;56.30;12.80;;;;;;;;;;5037918;28;20558;-68
2022/08/22 06:00:54;;;;;;;57.67;12.23;;;;;;;;;;5034351;28;20718;-69
2022/08/22 06:03:27;;;;;;;42.53;10.10;;;;;;;;;;5033422;28;20480;-68
2022/08/22 06:05:58;;;;;;;51.67;10.10;;;;;;;;;;5041027;28;20632;-68
2022/08/22 06:08:28;;;;;;;91.10;14.77;;;;;;;;;;5037549;28;20468;-69
2022/08/22 06:10:56;;;;;;;53.33;9.40;;;;;;;;;;5040000;28;20613;-68
2022/08/22 06:13:31;;;;;;;41.20;9.80;;;;;;;;;;5039669;28;20732;-69
2022/08/22 06:16:07;;;;;;;72.33;12.50;;;15.60;93.30;;;;;;5045112;28;20474;-69
2022/08/22 06:18:36;;;;;;;92.60;17.33;;;;;;;;;;5063798;28;20477;-69
2022/08/22 06:21:04;;;;;;;59.27;12.03;;;;;;;;;;5072400;28;20873;-69
2022/08/22 06:23:36;;;;;;;65.10;15.30;;;;;;;;;;5067468;28;20484;-69
2022/08/22 06:26:05;;;;;;;64.63;11.90;;;16.20;93.50;;;;;;5037113;28;20513;-69
2022/08/22 06:28:34;;;;;;;100.93;18.30;;;;;;;;;;5027610;28;20480;-68
2022/08/22 06:31:05;;;;;;;47.50;10.87;;;16.50;93.60;;;;;;5052996;28;20476;-69
2022/08/22 06:33:35;;;;;;;93.27;16.17;;;;;;;;;;5028782;28;20570;-69
2022/08/22 06:38:54;;;;;;;66.83;13.10;;;;;;;;;;5035420;28;20482;-69
2022/08/22 06:41:22;;;;;;;39.57;10.47;;;;;;;;;;5035073;28;20468;-69
2022/08/22 06:43:52;;;;;;;37.23;8.67;;;;;;;;;;5070597;28;20996;-68
2022/08/22 06:46:21;;;;;;;39.77;11.20;;;;;;;;;;5033396;28;20515;-69
2022/08/22 06:48:50;;;;;;;47.13;10.30;;;;;;;;;;5041723;28;20487;-69
2022/08/22 06:51:18;;;;;;;37.60;10.10;;;;;;;;;;5034403;28;21046;-69
2022/08/22 06:53:48;;;;;;;41.37;9.07;;;21.50;88.30;;;;;;5057125;28;20484;-69
2022/08/22 06:56:20;;;;;;;30.60;9.73;;;;;;;;;;5036897;28;20476;-70
2022/08/22 06:58:48;;;;;;;45.73;10.23;;;;;;;;;;5034671;28;20514;-70
2022/08/22 07:01:21;;;;;;;25.77;7.53;;;22.90;79.10;;;;;;5031625;28;20494;-70
2022/08/22 07:03:50;;;;;;;52.93;11.67;;;;;;;;;;5033105;28;20495;-71
2022/08/22 07:06:21;;;;;;;21.80;7.23;;;;;;;;;;5033807;28;20483;-71
2022/08/22 07:08:53;;;;;;;33.67;9.10;;;;;;;;;;5038598;28;20486;-71
2022/08/22 07:11:22;;;;;;;47.53;11.57;;;;;;;;;;5028761;28;20494;-71
2022/08/22 07:13:52;;;;;;;65.23;11.83;;;;;;;;;;5034941;28;20488;-69
2022/08/22 07:16:26;;;;;;;73.33;14.27;;;;;;;;;;5031489;28;20490;-70
2022/08/22 07:18:53;;;;;;;62.50;10.63;;;;;;;;;;5035133;28;20865;-69
2022/08/22 07:21:24;;;;;;;52.33;10.20;;;;;;;;;;5035505;28;21091;-70
2022/08/22 07:23:51;;;;;;;43.80;9.33;;;;;;;;;;5033819;28;21256;-70
2022/08/22 07:26:25;;;;;;;54.23;12.27;;;;;;;;;;5035508;28;20486;-70
2022/08/22 07:28:54;;;;;;;58.30;10.70;;;;;;;;;;5051857;28;20477;-69
2022/08/22 07:31:27;;;;;;;44.63;9.60;;;;;;;;;;5060125;27;20490;-70
2022/08/22 07:33:56;;;;;;;49.87;10.50;;;;;;;;;;5082534;28;21118;-70
2022/08/22 07:36:25;;;;;;;61.97;12.10;;;;;;;;;;5060385;28;20480;-70
2022/08/22 07:38:59;;;;;;;61.93;12.03;;;;;;;;;;5066542;28;20561;-69
2022/08/22 07:41:30;;;;;;;64.03;11.60;;;;;;;;;;5068327;28;21062;-70
2022/08/22 07:44:01;;;;;;;53.60;10.70;;;;;;;;;;5073478;28;20483;-69
2022/08/22 07:46:34;;;;;;;61.37;13.43;;;;;;;;;;5058746;28;20478;-70
2022/08/22 07:49:10;;;;;;;37.90;8.33;;;26.50;67.80;;;;;;5048859;28;20979;-70
2022/08/22 07:51:41;;;;;;;108.73;18.00;;;;;;;;;;5058238;28;21042;-69
2022/08/22 07:54:10;;;;;;;48.57;11.40;;;;;;;;;;5057073;28;20474;-70
2022/08/22 07:56:41;;;;;;;73.83;14.90;;;;;;;;;;5060168;28;20886;-70
2022/08/22 07:59:10;;;;;;;52.87;12.03;;;;;;;;;;5064439;28;21300;-70
2022/08/22 08:01:39;;;;;;;62.93;12.70;;;;;;;;;;5061480;28;20844;-70
2022/08/22 08:04:09;;;;;;;59.87;11.90;;;;;;;;;;5065357;28;20486;-70
2022/08/22 08:06:36;;;;;;;91.63;17.63;;;;;;;;;;5065453;28;20469;-69
2022/08/22 08:09:04;;;;;;;52.50;11.17;;;26.80;62.60;;;;;;5064077;28;20481;-70
2022/08/22 08:11:34;;;;;;;57.73;12.03;;;;;;;;;;5057616;28;20527;-69
2022/08/22 08:14:04;;;;;;;59.60;12.60;;;27.20;60.90;;;;;;5035097;28;20464;-70
2022/08/22 08:16:35;;;;;;;70.13;14.90;;;;;;;;;;5037598;28;20474;-71
2022/08/22 08:19:03;;;;;;;36.77;8.03;;;27.30;60.20;;;;;;5045179;28;21011;-70
2022/08/22 08:21:37;;;;;;;18.77;9.57;;;27.10;58.90;;;;;;5054444;28;20470;-70
2022/08/22 08:24:06;;;;;;;24.67;7.60;;;;;;;;;;5054502;28;20888;-70
2022/08/22 08:26:35;;;;;;;35.90;12.57;;;;;;;;;;5054751;28;20479;-70
2022/08/22 08:29:03;;;;;;;48.47;12.10;;;27.70;60.30;;;;;;5065951;28;20486;-71
2022/08/22 08:31:34;;;;;;;39.13;13.03;;;27.90;58.80;;;;;;5070675;28;20486;-70
2022/08/22 08:34:06;;;;;;;26.23;8.50;;;29.10;59.40;;;;;;5065480;27;20564;-71
2022/08/22 08:36:36;;;;;;;37.03;14.37;;;;;;;;;;5072338;27;20829;-70
2022/08/22 08:39:11;;;;;;;28.97;7.30;;;;;;;;;;5061163;28;20444;-69
2022/08/22 08:41:50;;;;;;;30.43;10.73;;;;;;;;;;5055397;28;20482;-69
2022/08/22 08:44:24;;;;;;;38.53;9.07;;;;;;;;;;5069340;28;20831;-70
2022/08/22 08:47:15;;;;;;;39.30;11.57;;;;;;;;;;5063899;28;20519;-71
2022/08/22 08:49:48;;;;;;;30.53;10.30;;;;;;;;;;5056381;28;20694;-70
2022/08/22 08:52:34;;;;;;;24.37;9.40;;;;;;;;;;5060342;27;20448;-71
2022/08/22 08:55:06;;;;;;;31.37;10.40;;;;;;;;;;5065572;28;20966;-70
2022/08/22 08:57:38;;;;;;;31.53;12.33;;;;;;;;;;5043502;28;20467;-70
2022/08/22 09:00:10;;;;;;;29.30;9.10;;;;;;;;;;5050304;28;20466;-71
2022/08/22 09:02:46;;;;;;;24.00;10.43;;;;;;;;;;5056329;28;20481;-70
2022/08/22 09:05:34;;;;;;;36.83;10.57;;;;;;;;;;5062042;28;20482;-70
2022/08/22 09:08:14;;;;;;;14.00;6.30;;;;;;;;;;5052916;28;20471;-69
2022/08/22 09:10:58;;;;;;;20.60;10.03;;;;;;;;;;5040067;28;20470;-69
2022/08/22 09:13:40;;;;;;;12.40;8.57;;;;;;;;;;5029614;28;20810;-70
2022/08/22 09:16:15;;;;;;;12.10;6.60;;;;;;;;;;5052805;28;20554;-70
2022/08/22 09:18:55;;;;;;;19.47;9.83;;;;;;;;;;5051237;28;21390;-69
2022/08/22 09:21:27;;;;;;;12.50;7.77;;;;;;;;;;5066411;28;21004;-70
2022/08/22 09:24:13;;;;;;;41.87;11.80;;;;;;;;;;5066900;28;20485;-69
2022/08/22 09:26:47;;;;;;;25.10;12.00;;;;;;;;;;5053835;28;20478;-69
2022/08/22 09:29:22;;;;;;;17.53;8.90;;;;;;;;;;5036832;28;20830;-70
2022/08/22 09:31:54;;;;;;;11.47;7.57;;;;;;;;;;5057372;28;20486;-70
2022/08/22 09:34:25;;;;;;;11.03;8.23;;;;;;;;;;5063282;28;21202;-70
2022/08/22 09:37:03;;;;;;;14.77;8.47;;;;;;;;;;5064571;28;20527;-70
2022/08/22 09:39:34;;;;;;;16.00;10.80;;;;;;;;;;5065584;27;21285;-70
2022/08/22 09:42:10;;;;;;;19.77;6.50;;;30.60;53.50;;;;;;5075633;27;20505;-69
2022/08/22 09:44:41;;;;;;;14.37;10.23;;;;;;;;;;5068815;28;20842;-70
2022/08/22 09:47:13;;;;;;;11.57;6.73;;;;;;;;;;5060652;28;20489;-69
2022/08/22 09:49:48;;;;;;;12.07;8.97;;;;;;;;;;5068614;28;20452;-70
2022/08/22 09:52:21;;;;;;;7.60;6.30;;;;;;;;;;5056223;28;20474;-70
2022/08/22 09:54:50;;;;;;;9.50;6.30;;;;;;;;;;5067760;28;20471;-70
2022/08/22 09:57:32;;;;;;;11.87;8.37;;;;;;;;;;5048921;28;20485;-70
2022/08/22 10:00:23;;;;;;;10.00;7.20;;;;;;;;;;5061021;28;20926;-72
2022/08/22 10:03:11;;;;;;;21.20;7.63;;;30.60;51.50;;;;;;5045540;28;20466;-72
2022/08/22 10:05:45;;;;;;;15.23;9.00;;;;;;;;;;5068942;28;20611;-71
2022/08/22 10:08:20;;;;;;;19.23;6.87;;;;;;;;;;5054096;28;20537;-70
2022/08/22 10:10:53;;;;;;;9.67;6.93;;;;;;;;;;5055876;28;20446;-69
2022/08/22 10:13:27;;;;;;;11.33;7.27;;;;;;;;;;5060195;28;20591;-70
2022/08/22 10:15:57;;;;;;;10.07;7.43;;;;;;;;;;5069741;28;20486;-71
2022/08/22 10:18:35;;;;;;;8.40;6.97;;;31.80;50.70;;;;;;5065535;28;20471;-72
2022/08/22 10:21:08;;;;;;;12.07;6.90;;;;;;;;;;5063371;28;20469;-71
2022/08/22 10:23:37;;;;;;;14.90;8.40;;;;;;;;;;5066030;28;20449;-69
2022/08/22 10:26:12;;;;;;;21.20;8.03;;;;;;;;;;5056121;28;21373;-69
2022/08/22 10:28:47;;;;;;;13.80;8.90;;;;;;;;;;5036609;28;20765;-69
2022/08/22 10:31:21;;;;;;;10.50;7.77;;;;;;;;;;5039798;28;20506;-68
2022/08/22 10:33:55;;;;;;;7.03;5.40;;;;;;;;;;5060241;28;20903;-70
2022/08/22 10:36:26;;;;;;;12.37;10.03;;;;;;;;;;5053778;28;20446;-69
2022/08/22 10:38:54;;;;;;;11.67;6.83;;;;;;;;;;5064655;28;20474;-70
2022/08/22 10:41:30;;;;;;;11.07;7.60;;;;;;;;;;5061359;27;20449;-70
2022/08/22 10:44:01;;;;;;;20.73;7.43;;;;;;;;;;5068484;28;20470;-71
2022/08/22 10:46:32;;;;;;;16.60;9.87;;;;;;;;;;5063459;27;20470;-69
2022/08/22 10:49:00;;;;;;;13.40;8.47;;;;;;;;;;5067314;28;21001;-69
2022/08/22 10:51:35;;;;;;;14.67;9.50;;;;;;;;;;5068043;28;20463;-69
2022/08/22 10:54:24;;;;;;;9.83;7.37;;;;;;;;;;5068603;28;20502;-69
2022/08/22 10:56:56;;;;;;;16.03;10.87;;;;;;;;;;5067682;28;20469;-71
2022/08/22 10:59:30;;;;;;;11.13;8.20;;;;;;;;;;5068311;28;20523;-72
2022/08/22 11:02:02;;;;;;;8.37;7.00;;;;;;;;;;5062869;27;20485;-70
2022/08/22 11:04:34;;;;;;;22.07;10.50;;;;;;;;;;5072375;28;20474;-71
2022/08/22 11:07:10;;;;;;;24.90;10.07;;;;;;;;;;5066527;27;20793;-72
2022/08/22 11:09:40;;;;;;;14.63;9.23;;;;;;;;;;5064726;28;20461;-70
2022/08/22 11:12:12;;;;;;;25.47;8.90;;;;;;;;;;5065799;28;20473;-71
2022/08/22 11:14:54;;;;;;;17.23;8.67;;;;;;;;;;5067917;28;20578;-71
2022/08/22 11:17:26;;;;;;;12.40;7.53;;;;;;;;;;5061666;28;21056;-72
2022/08/22 11:20:02;;;;;;;12.90;6.67;;;;;;;;;;5063682;28;20468;-70
2022/08/22 11:22:32;;;;;;;15.20;8.67;;;;;;;;;;5065313;28;20482;-71
2022/08/22 11:25:13;;;;;;;11.00;6.53;;;;;;;;;;5060371;28;20452;-71
2022/08/22 11:27:46;;;;;;;11.17;8.50;;;;;;;;;;5065756;28;20590;-71
2022/08/22 11:30:15;;;;;;;21.87;7.43;;;;;;;;;;5072528;28;20463;-72
2022/08/22 11:33:03;;;;;;;26.17;9.70;;;;;;;;;;5065413;28;20482;-71
2022/08/22 11:35:36;;;;;;;13.87;9.33;;;32.30;48.50;;;;;;5067119;28;20471;-70
2022/08/22 11:38:10;;;;;;;14.13;7.23;;;31.90;48.30;;;;;;5048113;28;20458;-70
2022/08/22 11:40:41;;;;;;;22.47;9.57;;;;;;;;;;5073992;28;20457;-72
2022/08/22 11:43:30;;;;;;;10.30;8.13;;;;;;;;;;5064282;28;20478;-71
2022/08/22 11:45:59;;;;;;;19.13;7.93;;;;;;;;;;5074314;28;21005;-71
2022/08/22 11:48:29;;;;;;;11.93;9.20;;;;;;;;;;5060081;28;20448;-70
2022/08/22 11:51:08;;;;;;;6.10;5.20;;;31.60;47.90;;;;;;5066957;28;20456;-70
2022/08/22 11:53:39;;;;;;;16.03;10.47;;;;;;;;;;5067641;28;20850;-70
2022/08/22 11:56:12;;;;;;;8.63;6.53;;;;;;;;;;5062150;28;20450;-70
2022/08/22 11:58:45;;;;;;;14.50;8.50;;;;;;;;;;5061068;28;20810;-71
2022/08/22 12:01:16;;;;;;;7.00;5.50;;;;;;;;;;5063808;28;20939;-71
2022/08/22 12:03:51;;;;;;;20.47;7.23;;;;;;;;;;5069165;28;20864;-72
2022/08/22 12:06:46;;;;;;;12.23;6.80;;;;;;;;;;5067800;28;20832;-71
2022/08/22 12:09:31;;;;;;;6.93;6.17;;;;;;;;;;5028409;28;20449;-70
2022/08/22 12:12:02;;;;;;;23.10;7.77;;;;;;;;;;5062950;28;20482;-70
2022/08/22 12:14:31;;;;;;;16.60;9.97;;;;;;;;;;5060502;28;21124;-70
2022/08/22 12:17:16;;;;;;;14.40;9.83;;;;;;;;;;5067440;28;21028;-70
2022/08/22 12:19:46;;;;;;;11.93;6.37;;;;;;;;;;5056084;28;21379;-72
2022/08/22 12:22:31;;;;;;;7.83;5.80;;;;;;;;;;5073355;28;20479;-72
2022/08/22 12:25:07;;;;;;;11.10;6.27;;;;;;;;;;5045597;28;20446;-70
2022/08/22 12:27:49;;;;;;;21.10;10.77;;;32.70;47.30;;;;;;5058319;28;20477;-71
2022/08/22 12:30:21;;;;;;;10.63;8.00;;;;;;;;;;5064594;28;21046;-71
2022/08/22 12:33:18;;;;;;;8.07;6.47;;;33.40;48.80;;;;;;5053198;28;20451;-71
2022/08/22 12:35:52;;;;;;;6.97;6.10;;;;;;;;;;5034575;28;20447;-70
2022/08/22 12:38:27;;;;;;;44.37;8.90;;;;;;;;;;5025508;28;20450;-69
2022/08/22 12:41:04;;;;;;;7.90;6.70;;;;;;;;;;5035661;28;20484;-70
2022/08/22 12:43:44;;;;;;;40.20;8.83;;;;;;;;;;5033784;28;21076;-71
2022/08/22 12:46:23;;;;;;;9.93;6.87;;;;;;;;;;5029255;28;20479;-71
2022/08/22 12:49:05;;;;;;;19.33;5.67;;;;;;;;;;5017337;28;20449;-72
2022/08/22 12:51:36;;;;;;;13.90;9.17;;;;;;;;;;5041259;28;20446;-69
2022/08/22 12:54:19;;;;;;;7.53;5.60;;;;;;;;;;5034199;28;20581;-71
2022/08/22 12:56:53;;;;;;;21.43;13.57;;;;;;;;;;5030595;28;20907;-70
2022/08/22 12:59:23;;;;;;;22.73;8.50;;;;;;;;;;5066791;28;20449;-71
2022/08/22 13:01:53;;;;;;;8.93;5.50;;;32.90;45.10;;;;;;5064535;28;20575;-71
2022/08/22 13:04:25;;;;;;;10.07;6.90;;;32.30;45.40;;;;;;5057952;28;20466;-72
2022/08/22 13:06:57;;;;;;;14.77;9.20;;;;;;;;;;5065621;28;20454;-71
2022/08/22 13:09:28;;;;;;;8.60;6.60;;;;;;;;;;5063039;28;20532;-71
2022/08/22 13:11:59;;;;;;;18.93;7.50;;;31.60;46.10;;;;;;5063297;28;20520;-70
2022/08/22 13:14:28;;;;;;;9.37;8.03;;;31.50;46.60;;;;;;5065821;28;20491;-73
2022/08/22 13:16:57;;;;;;;13.53;9.47;;;;;;;;;;5067358;28;20452;-69
2022/08/22 13:19:27;;;;;;;21.20;7.53;;;;;;;;;;5067993;28;20473;-70
2022/08/22 13:21:57;;;;;;;8.60;5.90;;;;;;;;;;5047366;28;20893;-71
2022/08/22 13:24:27;;;;;;;10.97;7.00;;;;;;;;;;5053711;28;20479;-72
2022/08/22 13:27:01;;;;;;;13.23;8.80;;;;;;;;;;5031557;28;20810;-70
2022/08/22 13:29:35;;;;;;;14.30;7.17;;;;;;;;;;5032247;28;20938;-72
2022/08/22 13:32:03;;;;;;;17.30;6.97;;;31.80;46.20;;;;;;5035955;28;20487;-71
2022/08/22 13:34:38;;;;;;;16.97;8.83;;;;;;;;;;5029707;28;20577;-71
2022/08/22 13:37:10;;;;;;;9.60;6.60;;;33.00;48.90;;;;;;5058474;28;20630;-71
2022/08/22 13:39:41;;;;;;;14.20;8.80;;;33.60;47.70;;;;;;5046945;28;20438;-70
2022/08/22 13:42:15;;;;;;;7.67;6.03;;;33.40;44.80;;;;;;5039517;28;20445;-72
2022/08/22 13:44:45;;;;;;;21.27;7.07;;;33.30;46.00;;;;;;5055806;28;20562;-73
2022/08/22 13:47:16;;;;;;;10.40;5.87;;;33.20;46.10;;;;;;5052993;28;20837;-71
2022/08/22 13:49:47;;;;;;;39.10;7.43;;;33.10;45.10;;;;;;5058409;27;20474;-70
2022/08/22 13:52:20;;;;;;;11.17;6.67;;;;;;;;;;5066953;28;21104;-71
2022/08/22 13:54:51;;;;;;;7.97;6.00;;;;;;;;;;5059917;28;20544;-70
2022/08/22 13:57:23;;;;;;;10.23;4.97;;;33.40;46.60;;;;;;5062548;28;20457;-73
2022/08/22 13:59:52;;;;;;;8.20;5.53;;;;;;;;;;5062856;27;20448;-71
2022/08/22 14:02:28;;;;;;;16.70;6.40;;;;;;;;;;5059888;28;20466;-70
2022/08/22 14:05:02;;;;;;;19.50;8.40;;;33.00;47.00;;;;;;5068296;28;20480;-70
2022/08/22 14:07:32;;;;;;;13.03;9.10;;;;;;;;;;5054590;27;21095;-70
2022/08/22 14:10:04;;;;;;;7.57;5.23;;;33.20;45.40;;;;;;5064708;28;20474;-72
2022/08/22 14:12:34;;;;;;;15.37;10.30;;;;;;;;;;5055062;28;20479;-71
2022/08/22 14:15:06;;;;;;;25.03;7.20;;;32.50;45.90;;;;;;5078625;28;20456;-70
2022/08/22 14:17:38;;;;;;;11.60;8.73;;;32.20;45.80;;;;;;5057512;28;20453;-72
2022/08/22 14:20:12;;;;;;;7.10;6.10;;;32.40;47.40;;;;;;5068012;28;21120;-70
2022/08/22 14:22:42;;;;;;;13.03;8.87;;;32.40;46.20;;;;;;5066479;28;20979;-71
2022/08/22 14:25:19;;;;;;;9.33;6.93;;;32.80;47.10;;;;;;5069587;28;20500;-71
2022/08/22 14:27:54;;;;;;;9.13;7.50;;;;;;;;;;5067914;28;21062;-70
2022/08/22 14:30:25;;;;;;;14.03;7.20;;;32.80;46.10;;;;;;5050994;28;20436;-71
2022/08/22 14:32:54;;;;;;;17.43;6.87;;;32.80;46.70;;;;;;5062187;28;20509;-71
2022/08/22 14:35:26;;;;;;;15.63;7.00;;;;;;;;;;5064966;28;20478;-72
2022/08/22 14:37:56;;;;;;;9.93;6.83;;;;;;;;;;5063011;28;20457;-71
2022/08/22 14:40:28;;;;;;;12.93;8.40;;;33.40;46.30;;;;;;5066447;28;20460;-70
2022/08/22 14:43:03;;;;;;;5.43;4.90;;;33.60;46.90;;;;;;5064725;28;20460;-71
2022/08/22 14:45:35;;;;;;;14.30;7.10;;;33.80;46.80;;;;;;5056563;27;20451;-71
2022/08/22 14:48:13;;;;;;;7.40;5.87;;;34.10;46.40;;;;;;5061618;28;20477;-70